KEUG/EUG METAR and TAF weather

Enter ICAO airport designator
Station Type Date Time Source
KEUG METAR 2022/06/25 22:54 UTC NOAA

KEUG 252254Z 36011KT 10SM CLR 33/14 A2992 RMK AO2 SLP130 T03280144


Station Type Date Time Source
KEUG Decoded METAR 2022/06/25 22:54 UTC NOAA

MAHLON SWEET FIELD, OR, United States (KEUG) 44-08N 123-13W 114M
Jun 25, 2022 - 06:54 PM EDT / 2022.06.25 2254 UTC
Wind: from the N (360 degrees) at 13 MPH (11 KT):0
Visibility: 10 mile(s):0
Sky conditions: clear
Temperature: 91.0 F (32.8 C)
Dew Point: 57.9 F (14.4 C)
Relative Humidity: 32%
Pressure (altimeter): 29.92 in. Hg (1013 hPa)
ob: KEUG 252254Z 36011KT 10SM CLR 33/14 A2992 RMK AO2 SLP130 T03280144
cycle: 23

Station Type Date Time Source
KEUG TAF 2022/06/25 18:42 UTC NOAA

TAF KEUG 251740Z 2518/2618 01011KT P6SM SKC
FM252300 01013G22KT P6SM SKC
FM260000 36010G18KT P6SM SKC
FM260300 36006KT P6SM SKC

Example: see airport list